Terminal Aerodrome Forecast
Issued by NWS

Home | Current Version | Previous Version | Text Only | Print | Product List | Glossary Off
Versions: 1 2 3 4 5 6 7 8 9 10 11 12 13 14

022
FTUS42 KMHX 162321
TAFISO
TAF
KISO 162321Z 1700/1724 25010KT P6SM BKN060
     FM170600 28006KT P6SM SKC
     FM171500 27012G20KT P6SM SKC
      AMD LTD TO CLD VIS AND WIND=

USA.gov is the U.S. government's official web portal to all federal, state and local government web resources and services.